Time;durP1;ratioP1;P1;durP2;ratioP2;P2;SDS_P1;SDS_P2;PMS_P1;PMS_P2;Temp;Humidity;BMP_temperature;BMP_pressure;BME280_temperature;BME280_humidity;BME280_pressure;Samples;Min_cycle;Max_cycle;Signal;HPM_P1;HPM_P2
2023/02/09 00:02:03;;;;;;;8.15;4.00;;;-0.20;99.90;;;;;;4999970;28;20038;-82
2023/02/09 00:04:29;;;;;;;8.52;4.38;;;-0.30;99.90;;;;;;4997116;28;20762;-82
2023/02/09 00:06:54;;;;;;;6.90;3.88;;;-0.30;99.90;;;;;;4996359;28;20029;-83
2023/02/09 00:09:20;;;;;;;6.22;3.35;;;-0.30;99.90;;;;;;5000341;28;20112;-81
2023/02/09 00:14:32;;;;;;;7.65;3.85;;;-0.40;99.90;;;;;;5000905;28;20135;-83
2023/02/09 00:17:00;;;;;;;6.57;4.00;;;-0.50;99.90;;;;;;5002270;28;20443;-82
2023/02/09 00:19:26;;;;;;;9.85;4.68;;;-0.60;99.90;;;;;;4998727;28;20034;-83
2023/02/09 00:21:51;;;;;;;7.75;4.03;;;-0.60;99.90;;;;;;5003124;28;20079;-82
2023/02/09 00:24:17;;;;;;;8.40;4.10;;;-0.60;99.90;;;;;;5014142;28;20411;-81
2023/02/09 00:26:43;;;;;;;7.85;4.00;;;-0.70;99.90;;;;;;5014610;28;20030;-81
2023/02/09 00:29:09;;;;;;;7.45;3.90;;;-0.70;99.90;;;;;;5001523;28;20030;-82
2023/02/09 00:31:35;;;;;;;7.68;3.83;;;-0.70;99.90;;;;;;5001533;28;20495;-82
2023/02/09 00:34:01;;;;;;;8.27;4.13;;;-0.70;99.90;;;;;;5012922;28;20033;-80
2023/02/09 00:36:27;;;;;;;7.72;3.70;;;-0.70;99.90;;;;;;5000727;28;20089;-81
2023/02/09 00:38:53;;;;;;;6.53;3.45;;;-0.70;99.90;;;;;;5000167;28;20181;-80
2023/02/09 00:42:04;;;;;;;7.70;3.97;;;-0.80;99.90;;;;;;5014534;28;20495;-82
2023/02/09 00:44:08;;;;;;;6.00;3.80;;;-0.80;99.90;;;;;;4999435;28;20046;-81
2023/02/09 00:46:33;;;;;;;8.02;4.22;;;-0.80;99.90;;;;;;5000831;28;20022;-81
2023/02/09 00:48:59;;;;;;;7.78;3.80;;;-0.80;99.90;;;;;;4999245;28;20033;-81
2023/02/09 00:51:25;;;;;;;6.90;4.07;;;-0.90;99.90;;;;;;4999838;28;20075;-81
2023/02/09 00:53:51;;;;;;;7.00;3.88;;;-0.90;99.90;;;;;;5015499;28;20113;-80
2023/02/09 00:56:17;;;;;;;7.35;3.90;;;-0.90;99.90;;;;;;5000451;28;20038;-82
2023/02/09 00:58:42;;;;;;;7.90;4.40;;;-1.00;99.90;;;;;;4999727;28;20030;-80
2023/02/09 01:01:12;;;;;;;7.68;4.13;;;-1.00;99.90;;;;;;4997297;28;20052;-81
2023/02/09 01:03:38;;;;;;;6.63;3.58;;;-1.10;99.90;;;;;;4997806;28;20093;-80
2023/02/09 01:06:05;;;;;;;8.63;4.03;;;-1.10;99.90;;;;;;5001640;28;20041;-80
2023/02/09 01:08:31;;;;;;;6.80;3.65;;;-1.10;99.90;;;;;;4997910;28;20121;-81
2023/02/09 01:10:56;;;;;;;7.30;4.22;;;-1.10;99.90;;;;;;5002403;28;20069;-80
2023/02/09 01:13:22;;;;;;;8.52;4.72;;;-1.20;99.90;;;;;;5005234;28;20048;-81
2023/02/09 01:15:47;;;;;;;7.75;4.03;;;-1.20;99.90;;;;;;5008297;28;20153;-81
2023/02/09 01:18:13;;;;;;;7.25;3.80;;;-1.20;99.90;;;;;;5010439;28;20046;-81
2023/02/09 01:20:41;;;;;;;6.93;3.70;;;-1.30;99.90;;;;;;5007600;28;20045;-82
2023/02/09 01:23:06;;;;;;;8.25;3.67;;;-1.30;99.90;;;;;;5004422;28;20026;-82
2023/02/09 01:25:32;;;;;;;8.13;3.97;;;-1.30;99.90;;;;;;5000764;28;20403;-81
2023/02/09 01:27:57;;;;;;;8.52;3.97;;;-1.30;99.90;;;;;;5013912;28;20038;-81
2023/02/09 01:30:23;;;;;;;7.55;4.18;;;-1.30;99.90;;;;;;4998345;28;20093;-80
2023/02/09 01:32:49;;;;;;;8.15;4.07;;;-1.40;99.90;;;;;;5013698;28;20019;-80
2023/02/09 01:35:15;;;;;;;8.15;4.22;;;-1.40;99.90;;;;;;5000845;28;20927;-80
2023/02/09 01:37:41;;;;;;;8.63;4.53;;;-1.40;99.90;;;;;;4996817;28;20428;-82
2023/02/09 01:40:07;;;;;;;6.50;3.65;;;-1.40;99.90;;;;;;4996034;28;20038;-80
2023/02/09 01:42:33;;;;;;;8.65;4.57;;;-1.40;99.90;;;;;;5013146;28;20081;-81
2023/02/09 01:45:15;;;;;;;7.60;3.78;;;-1.40;99.90;;;;;;4997924;28;20046;-80
2023/02/09 01:47:49;;;;;;;7.38;3.88;;;-1.40;99.90;;;;;;4998028;28;20029;-82
2023/02/09 01:50:15;;;;;;;7.03;3.50;;;-1.50;99.90;;;;;;4998584;28;20022;-81
2023/02/09 01:52:42;;;;;;;8.20;4.68;;;-1.50;99.90;;;;;;5014386;28;20048;-81
2023/02/09 01:55:13;;;;;;;7.30;3.80;;;-1.50;99.90;;;;;;5001076;28;20030;-81
2023/02/09 01:57:42;;;;;;;8.48;4.70;;;-1.50;99.90;;;;;;4996571;28;20108;-82
2023/02/09 02:00:14;;;;;;;6.53;3.63;;;-1.50;99.90;;;;;;5013577;28;20022;-79
2023/02/09 02:02:43;;;;;;;7.20;3.95;;;-1.50;99.90;;;;;;4997080;28;20031;-80
2023/02/09 02:05:09;;;;;;;7.35;3.97;;;-1.50;99.90;;;;;;4997125;28;20037;-80
2023/02/09 02:07:53;;;;;;;6.90;3.67;;;-1.50;99.90;;;;;;4999737;28;20026;-80
2023/02/09 02:10:18;;;;;;;6.78;3.58;;;-1.60;99.90;;;;;;5011627;28;20345;-80
2023/02/09 02:12:44;;;;;;;8.18;4.05;;;-1.60;99.90;;;;;;4996452;28;20076;-81
2023/02/09 02:15:10;;;;;;;8.52;4.10;;;-1.60;99.90;;;;;;5014329;28;20061;-81
2023/02/09 02:17:50;;;;;;;6.45;3.80;;;-1.60;99.90;;;;;;4995698;28;20761;-81
2023/02/09 02:20:43;;;;;;;6.63;3.47;;;-1.60;99.90;;;;;;4997343;28;20064;-80
2023/02/09 02:23:16;;;;;;;8.40;4.15;;;-1.60;99.90;;;;;;5011782;28;20039;-80
2023/02/09 02:25:52;;;;;;;8.27;3.50;;;-1.70;99.90;;;;;;5012303;28;20124;-80
2023/02/09 02:28:31;;;;;;;8.30;3.35;;;-1.70;99.90;;;;;;5011106;28;20496;-80
2023/02/09 02:31:31;;;;;;;7.30;3.53;;;-1.60;99.90;;;;;;4994296;28;20888;-81
2023/02/09 02:34:18;;;;;;;6.78;3.35;;;-1.50;99.90;;;;;;5010989;28;20035;-80
2023/02/09 02:37:05;;;;;;;5.35;3.00;;;-1.50;99.90;;;;;;5013204;28;20033;-80
2023/02/09 02:39:47;;;;;;;7.22;3.63;;;-1.40;99.90;;;;;;4995648;28;20101;-81
2023/02/09 02:42:50;;;;;;;8.25;4.50;;;-1.30;99.90;;;;;;4995029;28;20480;-80
2023/02/09 02:45:35;;;;;;;7.88;4.43;;;-1.20;99.90;;;;;;5011938;28;20056;-80
2023/02/09 02:48:38;;;;;;;8.13;5.63;;;-1.10;99.90;;;;;;4995054;28;20029;-81
2023/02/09 02:51:05;;;;;;;6.80;3.27;;;-1.00;99.90;;;;;;5010144;28;20057;-79
2023/02/09 02:53:34;;;;;;;8.68;4.68;;;-1.00;99.90;;;;;;4997074;28;20761;-81
2023/02/09 02:56:10;;;;;;;7.95;3.85;;;-1.00;99.90;;;;;;4996059;28;20120;-81
2023/02/09 02:58:39;;;;;;;7.32;3.67;;;-1.00;99.90;;;;;;5012057;28;20062;-80
2023/02/09 03:01:09;;;;;;;8.85;3.70;;;-1.10;99.90;;;;;;5010829;28;20023;-80
2023/02/09 03:03:37;;;;;;;5.68;2.97;;;-1.20;99.90;;;;;;4994887;28;20030;-81
2023/02/09 03:06:05;;;;;;;6.43;3.40;;;-1.20;99.90;;;;;;4994272;28;20752;-80
2023/02/09 03:08:55;;;;;;;5.72;3.10;;;-1.20;99.90;;;;;;4996059;28;20092;-79
2023/02/09 03:11:23;;;;;;;4.60;2.75;;;-1.20;99.90;;;;;;4996170;28;20050;-80
2023/02/09 03:14:00;;;;;;;5.63;3.00;;;-1.20;99.90;;;;;;4997883;28;20018;-81
2023/02/09 03:16:35;;;;;;;5.13;2.53;;;-1.20;99.90;;;;;;4997403;28;20129;-81
2023/02/09 03:19:19;;;;;;;5.70;2.85;;;-1.20;99.90;;;;;;4996170;28;20025;-81
2023/02/09 03:21:59;;;;;;;7.03;3.15;;;-1.20;99.90;;;;;;5010294;28;20037;-80
2023/02/09 03:24:49;;;;;;;5.65;2.97;;;-1.20;99.90;;;;;;4995434;28;20042;-80
2023/02/09 03:27:23;;;;;;;5.97;2.90;;;-1.20;99.90;;;;;;4996351;28;20133;-79
2023/02/09 03:29:54;;;;;;;5.15;2.60;;;-1.20;99.90;;;;;;4995920;28;20030;-80
2023/02/09 03:32:22;;;;;;;7.10;3.33;;;-1.20;99.90;;;;;;5001019;28;20045;-80
2023/02/09 03:34:48;;;;;;;4.95;2.53;;;-1.20;99.90;;;;;;4996527;28;20117;-79
2023/02/09 03:37:14;;;;;;;5.20;2.78;;;-1.20;99.90;;;;;;4996183;28;20551;-80
2023/02/09 03:39:39;;;;;;;5.70;2.97;;;-1.20;99.90;;;;;;4996394;28;20041;-81
2023/02/09 03:42:05;;;;;;;7.57;3.00;;;-1.30;99.90;;;;;;4999894;28;20061;-80
2023/02/09 03:44:31;;;;;;;5.75;3.10;;;-1.20;99.90;;;;;;5000603;28;20129;-80
2023/02/09 03:46:59;;;;;;;5.93;2.80;;;-1.30;99.90;;;;;;5000056;28;20058;-80
2023/02/09 03:49:26;;;;;;;6.03;3.08;;;-1.30;99.90;;;;;;5000359;28;20049;-81
2023/02/09 03:51:52;;;;;;;5.75;2.70;;;-1.20;99.90;;;;;;5003323;28;20509;-81
2023/02/09 03:54:18;;;;;;;7.35;3.15;;;-1.20;99.90;;;;;;5002359;28;20029;-81
2023/02/09 03:56:43;;;;;;;7.70;3.17;;;-1.20;99.90;;;;;;5000281;28;20671;-79
2023/02/09 03:59:09;;;;;;;5.45;2.78;;;-1.20;99.90;;;;;;5003403;28;20184;-79
2023/02/09 04:01:35;;;;;;;7.22;3.13;;;-1.20;99.90;;;;;;4999512;28;20878;-80
2023/02/09 04:04:01;;;;;;;6.18;2.95;;;-1.20;99.90;;;;;;4998433;28;20037;-79
2023/02/09 04:06:31;;;;;;;6.60;3.30;;;-1.20;99.90;;;;;;5003071;28;20122;-79
2023/02/09 04:09:01;;;;;;;7.05;3.40;;;-1.20;99.90;;;;;;5001283;28;20073;-80
2023/02/09 04:11:27;;;;;;;6.30;2.92;;;-1.20;99.90;;;;;;4998482;28;20030;-80
2023/02/09 04:13:52;;;;;;;6.05;3.20;;;-1.10;99.90;;;;;;5015646;28;20014;-80
2023/02/09 04:16:18;;;;;;;7.15;3.85;;;-1.10;99.90;;;;;;5001313;28;20500;-81
2023/02/09 04:18:44;;;;;;;7.60;3.83;;;-1.00;99.90;;;;;;5000084;28;20049;-80
2023/02/09 04:21:11;;;;;;;6.78;3.80;;;-1.00;99.90;;;;;;5002826;28;20048;-81
2023/02/09 04:23:36;;;;;;;7.40;4.18;;;-1.00;99.90;;;;;;4998483;28;20113;-80
2023/02/09 04:26:02;;;;;;;8.15;3.63;;;-0.90;99.90;;;;;;4998734;28;20491;-80
2023/02/09 04:28:28;;;;;;;8.45;4.28;;;-0.90;99.90;;;;;;4999155;28;20026;-81
2023/02/09 04:30:54;;;;;;;8.50;4.55;;;-0.90;99.90;;;;;;5001159;28;20038;-82
2023/02/09 04:33:21;;;;;;;10.52;5.85;;;-0.80;99.90;;;;;;4999583;28;20068;-81
2023/02/09 04:35:47;;;;;;;10.15;4.88;;;-0.80;99.90;;;;;;5002243;28;20037;-83
2023/02/09 04:38:14;;;;;;;9.10;4.57;;;-0.70;99.90;;;;;;5016743;28;20029;-82
2023/02/09 04:40:40;;;;;;;7.80;4.07;;;-0.80;99.90;;;;;;5016570;28;22340;-82
2023/02/09 04:43:06;;;;;;;7.07;3.55;;;-0.80;99.90;;;;;;4999600;28;20042;-81
2023/02/09 04:45:31;;;;;;;7.15;3.55;;;-0.80;99.90;;;;;;5003451;28;20038;-82
2023/02/09 04:47:57;;;;;;;8.38;3.83;;;-0.80;99.90;;;;;;4998993;28;20030;-83
2023/02/09 04:50:23;;;;;;;7.00;3.60;;;-0.80;99.90;;;;;;5000267;28;20057;-81
2023/02/09 04:52:48;;;;;;;7.55;3.65;;;-0.80;99.90;;;;;;5001329;28;20026;-81
2023/02/09 04:55:14;;;;;;;9.07;5.10;;;-0.80;99.90;;;;;;4998172;28;20064;-81
2023/02/09 05:00:23;;;;;;;9.45;4.88;;;-0.70;99.90;;;;;;5001577;28;20065;-81
2023/02/09 05:02:49;;;;;;;9.20;5.18;;;-0.70;99.90;;;;;;4997299;28;20061;-81
2023/02/09 05:05:15;;;;;;;8.85;5.50;;;-0.70;99.90;;;;;;5013771;28;20197;-81
2023/02/09 05:07:41;;;;;;;9.88;4.65;;;-0.70;99.90;;;;;;5001922;28;20551;-81
2023/02/09 05:10:06;;;;;;;8.88;4.82;;;-0.60;99.90;;;;;;4998388;28;20042;-81
2023/02/09 05:12:32;;;;;;;11.50;4.93;;;-0.70;99.90;;;;;;5003015;28;20033;-81
2023/02/09 05:14:58;;;;;;;10.27;5.57;;;-0.70;99.90;;;;;;4998959;28;20109;-81
2023/02/09 05:17:23;;;;;;;7.78;4.43;;;-0.70;99.90;;;;;;5000972;28;20029;-82
2023/02/09 05:19:49;;;;;;;7.90;4.45;;;-0.70;99.90;;;;;;5015498;28;20033;-81
2023/02/09 05:22:15;;;;;;;8.40;4.70;;;-0.70;99.90;;;;;;5001213;28;20033;-81
2023/02/09 05:24:41;;;;;;;8.13;4.60;;;-0.70;99.90;;;;;;4996719;28;20034;-81
2023/02/09 05:27:07;;;;;;;7.65;4.22;;;-0.70;99.90;;;;;;4999762;28;20063;-81
2023/02/09 05:29:32;;;;;;;7.80;3.65;;;-0.80;99.90;;;;;;5000089;28;20034;-81
2023/02/09 05:31:58;;;;;;;7.13;3.92;;;-0.80;99.90;;;;;;4998758;28;20057;-82
2023/02/09 05:34:23;;;;;;;8.77;4.05;;;-0.90;99.90;;;;;;5000015;28;20084;-81
2023/02/09 05:36:49;;;;;;;6.50;3.60;;;-0.80;99.90;;;;;;4999176;28;20079;-83
2023/02/09 05:39:15;;;;;;;7.63;3.88;;;-0.90;99.90;;;;;;5014188;28;20116;-81
2023/02/09 05:44:24;;;;;;;7.22;3.55;;;-1.00;99.90;;;;;;4995899;28;20053;-81
2023/02/09 05:46:50;;;;;;;9.55;3.75;;;-1.00;99.90;;;;;;4998933;28;20033;-83
2023/02/09 05:49:15;;;;;;;9.70;4.68;;;-1.00;99.90;;;;;;4997702;28;20672;-82
2023/02/09 05:51:41;;;;;;;9.18;4.07;;;-1.00;99.90;;;;;;4999496;28;20018;-81
2023/02/09 05:54:06;;;;;;;9.77;4.20;;;-1.00;99.90;;;;;;4994756;28;20452;-79
2023/02/09 05:56:34;;;;;;;7.22;3.78;;;-1.00;99.90;;;;;;4994656;28;20095;-81
2023/02/09 05:58:59;;;;;;;7.70;3.72;;;-1.00;99.90;;;;;;4993916;28;20034;-82
2023/02/09 06:01:25;;;;;;;7.63;4.28;;;-1.00;99.90;;;;;;5013595;28;20041;-80
2023/02/09 06:03:51;;;;;;;7.93;4.18;;;-1.00;99.90;;;;;;5014550;28;20042;-80
2023/02/09 06:06:16;;;;;;;8.10;3.97;;;-0.90;99.90;;;;;;5007394;28;20030;-80
2023/02/09 06:08:42;;;;;;;9.13;4.53;;;-0.90;99.90;;;;;;4996792;28;20029;-80
2023/02/09 06:11:07;;;;;;;8.63;4.28;;;-0.90;99.90;;;;;;5010477;28;20033;-82
2023/02/09 06:13:36;;;;;;;8.70;4.43;;;-0.90;99.90;;;;;;4994609;28;20030;-81
2023/02/09 06:16:02;;;;;;;6.72;3.67;;;-0.90;99.90;;;;;;4993298;28;20428;-81
2023/02/09 06:18:27;;;;;;;6.63;3.03;;;-1.00;99.90;;;;;;4999219;28;20037;-82
2023/02/09 06:20:53;;;;;;;6.35;3.33;;;-1.00;99.90;;;;;;4996566;28;20516;-81
2023/02/09 06:23:19;;;;;;;8.02;3.50;;;-1.00;99.90;;;;;;4999474;28;20440;-79
2023/02/09 06:25:44;;;;;;;8.80;3.47;;;-1.00;99.90;;;;;;4993243;28;20042;-83
2023/02/09 06:28:10;;;;;;;8.27;3.60;;;-1.00;99.90;;;;;;4993621;28;20018;-79
2023/02/09 06:30:35;;;;;;;8.07;3.92;;;-1.10;99.90;;;;;;4994782;28;20799;-81
2023/02/09 06:33:01;;;;;;;7.63;4.15;;;-1.10;99.90;;;;;;4995812;28;20084;-80
2023/02/09 06:35:27;;;;;;;6.88;4.03;;;-1.10;99.90;;;;;;4995125;28;20087;-80
2023/02/09 06:37:56;;;;;;;8.68;4.25;;;-1.10;99.90;;;;;;4996308;28;20033;-80
2023/02/09 06:40:22;;;;;;;8.40;4.00;;;-1.10;99.90;;;;;;4994348;28;20026;-81
2023/02/09 06:42:48;;;;;;;7.63;3.53;;;-1.10;99.90;;;;;;4996747;28;20113;-81
2023/02/09 06:45:15;;;;;;;7.72;3.97;;;-1.10;99.90;;;;;;4998333;28;20125;-81
2023/02/09 06:47:42;;;;;;;6.75;4.07;;;-1.10;99.90;;;;;;4998524;28;20531;-80
2023/02/09 06:50:09;;;;;;;7.18;3.90;;;-1.10;99.90;;;;;;4994331;28;20033;-80
2023/02/09 06:52:34;;;;;;;8.93;4.10;;;-1.10;99.90;;;;;;4995999;28;20026;-80
2023/02/09 06:55:00;;;;;;;8.75;3.97;;;-1.10;99.90;;;;;;4991425;28;20553;-80
2023/02/09 06:57:27;;;;;;;8.27;4.28;;;-1.10;99.90;;;;;;4997616;28;20023;-80
2023/02/09 06:59:53;;;;;;;7.45;3.95;;;-1.20;99.90;;;;;;4993659;28;20097;-80
2023/02/09 07:02:18;;;;;;;7.97;4.30;;;-1.20;99.90;;;;;;4997422;28;20023;-80
2023/02/09 07:04:44;;;;;;;8.38;3.88;;;-1.20;99.90;;;;;;4999506;28;20088;-78
2023/02/09 07:07:09;;;;;;;8.10;4.28;;;-1.20;99.90;;;;;;4994903;28;20033;-79
2023/02/09 07:09:38;;;;;;;7.65;3.58;;;-1.20;99.90;;;;;;4995657;28;20483;-81
2023/02/09 07:12:04;;;;;;;9.80;4.10;;;-1.20;99.90;;;;;;4994215;28;20029;-81
2023/02/09 07:14:29;;;;;;;8.27;4.05;;;-1.20;99.90;;;;;;4992403;28;20033;-81
2023/02/09 07:16:55;;;;;;;7.88;3.85;;;-1.20;99.90;;;;;;4998579;28;20033;-79
2023/02/09 07:19:20;;;;;;;6.18;3.30;;;-1.10;99.90;;;;;;4999267;28;20076;-81
2023/02/09 07:21:47;;;;;;;9.23;4.18;;;-1.10;99.90;;;;;;5004040;28;20033;-81
2023/02/09 07:24:13;;;;;;;8.68;4.20;;;-1.10;99.90;;;;;;5014949;28;20050;-80
2023/02/09 07:26:39;;;;;;;9.32;4.45;;;-1.00;99.90;;;;;;4996951;28;20035;-80
2023/02/09 07:29:04;;;;;;;7.85;4.15;;;-1.00;99.90;;;;;;5014590;28;20038;-81
2023/02/09 07:31:30;;;;;;;6.65;3.55;;;-0.90;99.90;;;;;;4997844;28;20060;-80
2023/02/09 07:33:56;;;;;;;8.68;4.40;;;-0.90;99.90;;;;;;4998908;28;20021;-81
2023/02/09 07:36:22;;;;;;;7.78;4.00;;;-0.80;99.90;;;;;;4997907;28;20041;-81
2023/02/09 07:38:48;;;;;;;10.00;4.78;;;-0.80;99.90;;;;;;4998517;28;20030;-81
2023/02/09 07:41:18;;;;;;;8.82;4.55;;;-0.80;99.90;;;;;;4998715;28;20101;-81
2023/02/09 07:43:43;;;;;;;7.45;3.88;;;-0.80;99.90;;;;;;4999027;28;20049;-82
2023/02/09 07:46:12;;;;;;;7.50;4.20;;;-0.70;99.90;;;;;;4997564;28;20442;-82
2023/02/09 07:48:37;;;;;;;8.38;4.10;;;-0.70;99.90;;;;;;4998180;28;20038;-81
2023/02/09 07:51:03;;;;;;;9.93;4.68;;;-0.70;99.90;;;;;;4999280;28;20794;-79
2023/02/09 07:53:29;;;;;;;9.55;4.88;;;-0.60;99.90;;;;;;5000269;28;20064;-80
2023/02/09 07:55:55;;;;;;;8.13;4.40;;;-0.60;99.90;;;;;;5002638;28;20029;-82
2023/02/09 07:58:21;;;;;;;11.05;5.63;;;-0.50;99.90;;;;;;4997907;28;20061;-81
2023/02/09 08:00:48;;;;;;;13.57;6.00;;;-0.50;99.90;;;;;;4999410;28;20037;-79
2023/02/09 08:03:16;;;;;;;11.70;6.10;;;-0.40;99.90;;;;;;4998847;28;20022;-80
2023/02/09 08:06:03;;;;;;;13.55;6.57;;;-0.40;99.90;;;;;;5002304;28;20041;-80
2023/02/09 08:08:28;;;;;;;10.73;5.97;;;-0.30;99.90;;;;;;5013043;28;20121;-79
2023/02/09 08:10:57;;;;;;;12.38;5.93;;;-0.30;99.90;;;;;;4996262;28;20084;-81
2023/02/09 08:13:25;;;;;;;10.23;5.53;;;-0.30;99.90;;;;;;4997415;28;20018;-80
2023/02/09 08:15:55;;;;;;;8.40;4.85;;;-0.20;99.90;;;;;;4997909;28;20045;-81
2023/02/09 08:18:38;;;;;;;9.85;5.30;;;-0.10;99.90;;;;;;4997308;28;20018;-82
2023/02/09 08:21:08;;;;;;;10.38;6.45;;;0.00;99.90;;;;;;5015776;28;20037;-82
2023/02/09 08:23:34;;;;;;;10.98;6.05;;;0.00;99.90;;;;;;5003616;28;20450;-81
2023/02/09 08:26:05;;;;;;;9.85;6.32;;;0.10;99.90;;;;;;4996627;28;20089;-80
2023/02/09 08:28:31;;;;;;;13.02;7.20;;;0.10;99.90;;;;;;4997006;28;20018;-81
2023/02/09 08:30:57;;;;;;;11.98;6.93;;;0.10;99.90;;;;;;4999353;28;20655;-81
2023/02/09 08:33:23;;;;;;;15.48;7.32;;;0.20;99.90;;;;;;5000142;28;20030;-82
2023/02/09 08:35:51;;;;;;;12.18;7.22;;;0.20;99.90;;;;;;5004043;28;20492;-82
2023/02/09 08:38:18;;;;;;;11.65;6.93;;;0.30;99.90;;;;;;4997127;28;20472;-82
2023/02/09 08:40:44;;;;;;;11.60;6.35;;;0.40;99.90;;;;;;4998586;28;20022;-81
2023/02/09 08:43:11;;;;;;;15.50;7.10;;;0.40;99.90;;;;;;4999377;28;20550;-81
2023/02/09 08:45:38;;;;;;;12.30;6.40;;;0.60;99.90;;;;;;5001742;28;20419;-82
2023/02/09 08:48:05;;;;;;;11.70;6.53;;;0.70;99.90;;;;;;5002245;28;20120;-81
2023/02/09 08:50:32;;;;;;;12.40;6.95;;;0.80;99.90;;;;;;4999367;28;20026;-80
2023/02/09 08:52:58;;;;;;;13.63;7.38;;;0.90;99.90;;;;;;4997761;28;20159;-82
2023/02/09 08:55:24;;;;;;;12.50;6.63;;;1.00;99.90;;;;;;5013473;28;20034;-82
2023/02/09 08:57:49;;;;;;;10.13;6.25;;;1.10;99.90;;;;;;5001901;28;21104;-82
2023/02/09 09:00:16;;;;;;;11.55;6.43;;;1.20;99.90;;;;;;4995842;28;20080;-83
2023/02/09 09:02:41;;;;;;;11.70;6.63;;;1.30;99.90;;;;;;5013189;28;20025;-81
2023/02/09 09:05:07;;;;;;;10.77;6.30;;;1.50;99.90;;;;;;5012477;28;20042;-81
2023/02/09 09:07:32;;;;;;;15.18;6.97;;;1.60;99.90;;;;;;5012043;28;20799;-82
2023/02/09 09:09:58;;;;;;;14.10;7.72;;;1.70;99.90;;;;;;5001090;28;20030;-81
2023/02/09 09:12:23;;;;;;;13.75;7.40;;;1.70;99.90;;;;;;4999302;28;20654;-80
2023/02/09 09:14:49;;;;;;;11.73;6.53;;;1.80;99.90;;;;;;5000264;28;20029;-80
2023/02/09 09:17:15;;;;;;;14.52;8.55;;;1.90;99.90;;;;;;4999702;28;20491;-82
2023/02/09 09:19:40;;;;;;;16.27;9.13;;;2.00;99.90;;;;;;5001445;28;20041;-80
2023/02/09 09:22:06;;;;;;;13.10;8.02;;;2.10;99.90;;;;;;4997151;28;20076;-81
2023/02/09 09:24:33;;;;;;;14.25;9.00;;;2.20;99.90;;;;;;4997372;28;20034;-82
2023/02/09 09:26:59;;;;;;;13.40;7.93;;;2.60;99.90;;;;;;4995208;28;20119;-82
2023/02/09 09:29:24;;;;;;;11.90;7.13;;;3.30;99.90;;;;;;5000662;28;20042;-81
2023/02/09 09:31:50;;;;;;;14.38;7.97;;;3.90;99.90;;;;;;5009704;28;20101;-81
2023/02/09 09:34:16;;;;;;;12.80;7.50;;;4.40;99.90;;;;;;4994555;28;20033;-83
2023/02/09 09:36:41;;;;;;;12.75;7.07;;;4.90;99.90;;;;;;4994080;28;20018;-80
2023/02/09 09:39:07;;;;;;;11.95;7.28;;;5.10;99.90;;;;;;4998812;28;20068;-79
2023/02/09 09:41:35;;;;;;;12.93;7.40;;;5.30;99.90;;;;;;4999714;28;20582;-81
2023/02/09 09:44:02;;;;;;;14.75;7.78;;;5.30;99.90;;;;;;5003499;28;20042;-79
2023/02/09 09:46:40;;;;;;;13.98;6.97;;;5.20;99.90;;;;;;4998460;28;20033;-84
2023/02/09 09:49:17;;;;;;;12.35;6.95;;;5.00;99.90;;;;;;5000134;28;20687;-82
2023/02/09 09:51:46;;;;;;;13.15;7.30;;;5.00;99.90;;;;;;4999833;28;20027;-79
2023/02/09 09:54:16;;;;;;;13.20;7.22;;;4.90;99.90;;;;;;4993983;28;20534;-79
2023/02/09 09:56:41;;;;;;;11.00;6.43;;;5.10;99.90;;;;;;4997492;28;20521;-80
2023/02/09 09:59:18;;;;;;;11.88;7.05;;;5.20;99.90;;;;;;5001339;28;20038;-81
2023/02/09 10:01:44;;;;;;;12.50;7.55;;;5.20;99.90;;;;;;5000483;28;20234;-80
2023/02/09 10:04:12;;;;;;;12.20;7.60;;;5.00;99.90;;;;;;4997184;28;20633;-80
2023/02/09 10:06:41;;;;;;;12.77;7.38;;;5.10;99.90;;;;;;4999432;28;20080;-82
2023/02/09 10:09:25;;;;;;;12.82;7.75;;;5.20;99.90;;;;;;5015373;28;20475;-79
2023/02/09 10:12:04;;;;;;;;;;;5.40;99.90;;;;;;4998737;28;20033;-81
2023/02/09 10:14:29;;;;;;;16.13;7.22;;;5.80;99.90;;;;;;5002297;28;19924;-80
2023/02/09 10:16:55;;;;;;;11.55;7.38;;;6.00;99.90;;;;;;5002280;28;20482;-81
2023/02/09 10:19:26;;;;;;;13.70;7.50;;;6.00;99.90;;;;;;5007773;28;20030;-78
2023/02/09 10:21:53;;;;;;;14.45;7.05;;;6.40;99.90;;;;;;5007465;28;20084;-80
2023/02/09 10:24:30;;;;;;;11.55;6.93;;;6.90;99.90;;;;;;4999952;28;20041;-81
2023/02/09 10:27:06;;;;;;;12.73;7.80;;;7.40;99.90;;;;;;5000590;28;20080;-81
2023/02/09 10:29:34;;;;;;;11.68;7.85;;;7.70;99.90;;;;;;5014654;28;20126;-82
2023/02/09 10:32:21;;;;;;;12.98;7.68;;;8.10;99.90;;;;;;4999288;28;20760;-81
2023/02/09 10:34:48;;;;;;;11.57;7.70;;;8.40;99.90;;;;;;4999752;28;20032;-82
2023/02/09 10:37:16;;;;;;;13.07;7.50;;;8.40;99.90;;;;;;4999029;28;20562;-80
2023/02/09 10:39:43;;;;;;;13.07;7.82;;;8.50;99.90;;;;;;5015621;28;20730;-79
2023/02/09 10:42:25;;;;;;;12.35;7.45;;;8.90;99.90;;;;;;5000865;28;20030;-81
2023/02/09 10:44:54;;;;;;;13.90;7.90;;;9.20;99.90;;;;;;4999467;28;20042;-81
2023/02/09 10:47:20;;;;;;;12.68;7.97;;;9.30;99.90;;;;;;4998330;28;20064;-80
2023/02/09 10:50:10;;;;;;;13.93;7.95;;;9.60;99.90;;;;;;5000219;28;20033;-82
2023/02/09 10:52:53;;;;;;;13.50;8.10;;;9.70;99.90;;;;;;4995593;28;20037;-80
2023/02/09 10:55:40;;;;;;;13.43;8.40;;;9.40;99.90;;;;;;5006375;28;20140;-81
2023/02/09 10:58:08;;;;;;;13.77;8.63;;;9.30;99.90;;;;;;4990702;28;20041;-81
2023/02/09 11:00:52;;;;;;;13.48;8.02;;;9.00;99.90;;;;;;4991762;28;20037;-79
2023/02/09 11:03:20;;;;;;;;;;;9.10;99.90;;;;;;4994222;28;21061;-81
2023/02/09 11:05:54;;;;;;;12.57;7.90;;;9.40;99.90;;;;;;5010473;28;19925;-81
2023/02/09 11:08:22;;;;;;;12.95;8.07;;;9.70;99.90;;;;;;4995088;28;20971;-80
2023/02/09 11:11:06;;;;;;;12.82;8.27;;;9.70;99.90;;;;;;4993522;28;20150;-80
2023/02/09 11:13:33;;;;;;;11.88;8.15;;;9.60;99.90;;;;;;4994084;28;20484;-82
2023/02/09 11:16:14;;;;;;;13.15;8.30;;;9.40;99.90;;;;;;4994073;28;20152;-82
2023/02/09 11:18:46;;;;;;;13.93;7.82;;;9.40;99.90;;;;;;5010027;28;20172;-80
2023/02/09 11:21:23;;;;;;;13.05;8.15;;;9.70;99.90;;;;;;5009342;28;20037;-81
2023/02/09 11:24:14;;;;;;;13.55;8.88;;;9.50;99.90;;;;;;5010133;28;20068;-80
2023/02/09 11:27:03;;;;;;;14.45;9.30;;;9.30;99.90;;;;;;4994352;28;20062;-79
2023/02/09 11:29:46;;;;;;;13.43;9.30;;;8.80;99.90;;;;;;5007397;28;20141;-81
2023/02/09 11:32:19;;;;;;;;;;;8.40;99.90;;;;;;5007781;28;20030;-80
2023/02/09 11:35:05;;;;;;;15.32;8.88;;;8.20;99.90;;;;;;4993632;28;19947;-82
2023/02/09 11:37:44;;;;;;;14.77;8.98;;;8.10;99.90;;;;;;4997168;28;20167;-80
2023/02/09 11:40:23;;;;;;;15.02;9.27;;;7.90;99.90;;;;;;5011194;28;20076;-81
2023/02/09 11:43:18;;;;;;;14.13;7.93;;;7.80;99.90;;;;;;4993800;28;22481;-82
2023/02/09 11:45:52;;;;;;;13.13;8.32;;;7.50;99.90;;;;;;4994130;28;20038;-80
2023/02/09 11:48:26;;;;;;;13.93;8.05;;;7.30;99.90;;;;;;4996581;28;20033;-79
2023/02/09 11:51:07;;;;;;;12.25;7.90;;;7.10;99.90;;;;;;4995849;28;20396;-81
2023/02/09 11:54:09;;;;;;;14.05;9.82;;;7.10;99.90;;;;;;5012933;28;20603;-82
2023/02/09 11:56:39;;;;;;;15.25;9.30;;;7.10;99.90;;;;;;5000482;28;20420;-82
2023/02/09 11:59:20;;;;;;;12.25;8.20;;;7.10;99.90;;;;;;4992187;28;20709;-79
2023/02/09 12:01:53;;;;;;;12.25;7.85;;;7.20;99.90;;;;;;4994343;28;20033;-81
2023/02/09 12:04:57;;;;;;;12.52;8.55;;;7.40;99.90;;;;;;5014399;28;20038;-82
2023/02/09 12:07:50;;;;;;;14.57;9.48;;;7.40;99.90;;;;;;5014504;28;20095;-80
2023/02/09 12:10:38;;;;;;;17.48;10.35;;;7.20;99.90;;;;;;5014484;28;20034;-80
2023/02/09 12:13:28;;;;;;;15.48;8.85;;;7.20;99.90;;;;;;5013492;28;20029;-80
2023/02/09 12:16:01;;;;;;;14.07;8.40;;;7.10;99.90;;;;;;5012893;28;20034;-79
2023/02/09 12:18:33;;;;;;;12.63;8.32;;;7.10;99.90;;;;;;4998598;28;20022;-79
2023/02/09 12:21:04;;;;;;;13.93;8.73;;;7.20;99.90;;;;;;4995828;28;20495;-79
2023/02/09 12:23:43;;;;;;;13.23;9.30;;;7.20;99.90;;;;;;4997125;28;20094;-79
2023/02/09 12:26:15;;;;;;;13.43;8.93;;;7.20;99.90;;;;;;4997241;28;20567;-80
2023/02/09 12:28:42;;;;;;;13.13;8.30;;;7.30;99.90;;;;;;5012555;28;20053;-81
2023/02/09 12:31:23;;;;;;;17.42;10.25;;;7.40;99.90;;;;;;4997510;28;20029;-79
2023/02/09 12:33:58;;;;;;;15.05;10.35;;;7.50;99.90;;;;;;4999836;28;20175;-80
2023/02/09 12:36:32;;;;;;;15.80;10.25;;;7.40;99.90;;;;;;4999760;28;20037;-80
2023/02/09 12:39:22;;;;;;;14.88;9.35;;;7.50;99.90;;;;;;4998013;28;20037;-81
2023/02/09 12:41:47;;;;;;;16.52;9.43;;;7.60;99.90;;;;;;4998789;28;20022;-81
2023/02/09 12:44:17;;;;;;;13.30;8.88;;;7.90;99.90;;;;;;4996523;28;20081;-81
2023/02/09 12:46:53;;;;;;;12.45;7.90;;;8.00;99.90;;;;;;4993638;28;20500;-81
2023/02/09 12:49:32;;;;;;;17.48;8.75;;;8.00;99.90;;;;;;4997540;28;20027;-81
2023/02/09 12:51:58;;;;;;;15.25;9.30;;;7.70;99.90;;;;;;4997247;28;20038;-79
2023/02/09 12:54:48;;;;;;;12.48;8.23;;;7.50;99.90;;;;;;5013060;28;20383;-81
2023/02/09 12:57:13;;;;;;;14.75;9.05;;;7.30;99.90;;;;;;4993119;28;21522;-79
2023/02/09 12:59:48;;;;;;;14.15;10.25;;;7.10;99.90;;;;;;4997381;28;20029;-82
2023/02/09 13:02:24;;;;;;;13.55;8.18;;;7.00;99.90;;;;;;5012592;28;20459;-82
2023/02/09 13:04:59;;;;;;;12.52;8.13;;;7.20;99.90;;;;;;4996443;28;20034;-80
2023/02/09 13:07:37;;;;;;;15.00;9.45;;;7.50;99.90;;;;;;4994835;28;20018;-82
2023/02/09 13:10:17;;;;;;;15.18;8.88;;;7.70;99.90;;;;;;4998416;28;20076;-80
2023/02/09 13:12:49;;;;;;;13.77;9.68;;;7.80;99.90;;;;;;4997019;28;20029;-82